sensor_id;sensor_type;location;lat;lon;timestamp;pressure;altitude;pressure_sealevel;temperature;humidity
48964;BME280;34776;48.180;16.420;2022-10-04T00:00:49;100355.81;;;12.65;63.21
48964;BME280;34776;48.180;16.420;2022-10-04T00:05:48;100358.53;;;12.64;63.54
48964;BME280;34776;48.180;16.420;2022-10-04T00:11:17;100366.78;;;12.59;63.62
48964;BME280;34776;48.180;16.420;2022-10-04T00:13:50;100355.97;;;12.62;63.43
48964;BME280;34776;48.180;16.420;2022-10-04T00:16:20;100355.75;;;12.67;63.31
48964;BME280;34776;48.180;16.420;2022-10-04T00:18:47;100360.13;;;12.68;63.13
48964;BME280;34776;48.180;16.420;2022-10-04T00:21:13;100352.13;;;12.68;63.33
48964;BME280;34776;48.180;16.420;2022-10-04T00:23:41;100352.03;;;12.69;63.13
48964;BME280;34776;48.180;16.420;2022-10-04T00:28:48;100345.00;;;12.68;63.38
48964;BME280;34776;48.180;16.420;2022-10-04T00:31:23;100345.00;;;12.68;63.15
48964;BME280;34776;48.180;16.420;2022-10-04T00:36:52;100343.09;;;12.70;63.87
48964;BME280;34776;48.180;16.420;2022-10-04T00:42:18;100342.22;;;12.70;64.11
48964;BME280;34776;48.180;16.420;2022-10-04T00:45:01;100352.03;;;12.69;64.59
48964;BME280;34776;48.180;16.420;2022-10-04T00:50:21;100344.81;;;12.71;64.38
48964;BME280;34776;48.180;16.420;2022-10-04T00:52:47;100341.06;;;12.75;64.44
48964;BME280;34776;48.180;16.420;2022-10-04T00:57:54;100344.91;;;12.87;63.98
48964;BME280;34776;48.180;16.420;2022-10-04T01:00:23;100343.94;;;12.88;64.20
48964;BME280;34776;48.180;16.420;2022-10-04T01:02:51;100342.13;;;12.89;63.91
48964;BME280;34776;48.180;16.420;2022-10-04T01:05:34;100336.03;;;12.87;65.09
48964;BME280;34776;48.180;16.420;2022-10-04T01:08:12;100335.94;;;12.88;65.18
48964;BME280;34776;48.180;16.420;2022-10-04T01:10:46;100341.53;;;12.84;64.86
48964;BME280;34776;48.180;16.420;2022-10-04T01:13:18;100339.97;;;12.79;64.61
48964;BME280;34776;48.180;16.420;2022-10-04T01:21:46;100324.56;;;12.85;64.49
48964;BME280;34776;48.180;16.420;2022-10-04T01:24:21;100315.63;;;12.86;64.15
48964;BME280;34776;48.180;16.420;2022-10-04T01:26:47;100317.53;;;12.84;64.38
48964;BME280;34776;48.180;16.420;2022-10-04T01:29:17;100322.53;;;12.90;64.25
48964;BME280;34776;48.180;16.420;2022-10-04T01:31:51;100326.84;;;12.92;63.66
48964;BME280;34776;48.180;16.420;2022-10-04T01:34:23;100321.44;;;12.94;63.75
48964;BME280;34776;48.180;16.420;2022-10-04T01:36:52;100318.59;;;12.97;63.75
48964;BME280;34776;48.180;16.420;2022-10-04T01:39:20;100320.41;;;12.96;63.29
48964;BME280;34776;48.180;16.420;2022-10-04T01:42:01;100321.13;;;13.00;63.60
48964;BME280;34776;48.180;16.420;2022-10-04T01:47:22;100317.56;;;12.99;63.20
48964;BME280;34776;48.180;16.420;2022-10-04T01:49:49;100310.59;;;12.97;63.60
48964;BME280;34776;48.180;16.420;2022-10-04T01:52:20;100307.00;;;12.98;63.40
48964;BME280;34776;48.180;16.420;2022-10-04T01:57:45;100290.53;;;12.90;63.62
48964;BME280;34776;48.180;16.420;2022-10-04T02:00:12;100297.75;;;12.88;64.12
48964;BME280;34776;48.180;16.420;2022-10-04T02:02:59;100284.56;;;12.85;64.15
48964;BME280;34776;48.180;16.420;2022-10-04T02:05:30;100278.31;;;12.86;63.59
48964;BME280;34776;48.180;16.420;2022-10-04T02:08:03;100269.53;;;12.84;63.87
48964;BME280;34776;48.180;16.420;2022-10-04T02:10:32;100278.31;;;12.86;63.87
48964;BME280;34776;48.180;16.420;2022-10-04T02:13:00;100274.78;;;12.85;63.85
48964;BME280;34776;48.180;16.420;2022-10-04T02:15:28;100277.28;;;12.88;63.52
48964;BME280;34776;48.180;16.420;2022-10-04T02:17:55;100272.78;;;12.89;63.62
48964;BME280;34776;48.180;16.420;2022-10-04T02:20:24;100279.88;;;12.90;63.52
48964;BME280;34776;48.180;16.420;2022-10-04T02:22:55;100277.44;;;12.85;63.56
48964;BME280;34776;48.180;16.420;2022-10-04T02:25:23;100279.88;;;12.90;63.52
48964;BME280;34776;48.180;16.420;2022-10-04T02:27:54;100282.44;;;12.91;63.35
48964;BME280;34776;48.180;16.420;2022-10-04T02:30:21;100290.22;;;12.96;63.62
48964;BME280;34776;48.180;16.420;2022-10-04T02:32:48;100280.22;;;12.99;63.49
48964;BME280;34776;48.180;16.420;2022-10-04T02:35:44;100289.25;;;12.97;63.70
48964;BME280;34776;48.180;16.420;2022-10-04T02:38:22;100290.03;;;12.99;63.60
48964;BME280;34776;48.180;16.420;2022-10-04T02:40:54;100285.41;;;13.03;63.55
48964;BME280;34776;48.180;16.420;2022-10-04T02:43:34;100301.34;;;13.04;63.17
48964;BME280;34776;48.180;16.420;2022-10-04T02:46:07;100297.09;;;13.00;63.41
48964;BME280;34776;48.180;16.420;2022-10-04T02:48:43;100297.88;;;13.02;63.55
48964;BME280;34776;48.180;16.420;2022-10-04T02:56:16;100300.56;;;13.02;63.20
48964;BME280;34776;48.180;16.420;2022-10-04T02:58:43;100302.19;;;13.05;63.17
48964;BME280;34776;48.180;16.420;2022-10-04T03:02:01;100297.63;;;13.07;63.07
48964;BME280;34776;48.180;16.420;2022-10-04T03:04:03;100305.78;;;13.04;63.06
48964;BME280;34776;48.180;16.420;2022-10-04T03:06:30;100300.16;;;12.92;63.16
48964;BME280;34776;48.180;16.420;2022-10-04T03:09:02;100305.75;;;12.88;63.61
48964;BME280;34776;48.180;16.420;2022-10-04T03:11:33;100306.53;;;12.90;63.25
48964;BME280;34776;48.180;16.420;2022-10-04T03:14:01;100309.19;;;12.90;63.63
48964;BME280;34776;48.180;16.420;2022-10-04T03:16:36;100303.94;;;12.88;63.27
48964;BME280;34776;48.180;16.420;2022-10-04T03:19:03;100303.09;;;12.88;63.41
48964;BME280;34776;48.180;16.420;2022-10-04T03:21:30;100299.63;;;12.86;63.38
48964;BME280;34776;48.180;16.420;2022-10-04T03:23:58;100291.88;;;12.81;63.41
48964;BME280;34776;48.180;16.420;2022-10-04T03:26:40;100296.50;;;12.77;63.93
48964;BME280;34776;48.180;16.420;2022-10-04T03:29:08;100301.84;;;12.77;63.65
48964;BME280;34776;48.180;16.420;2022-10-04T03:31:42;100303.81;;;12.74;63.74
48964;BME280;34776;48.180;16.420;2022-10-04T03:34:19;100300.22;;;12.75;63.80
48964;BME280;34776;48.180;16.420;2022-10-04T03:36:47;100300.22;;;12.75;63.79
48964;BME280;34776;48.180;16.420;2022-10-04T03:39:21;100301.22;;;12.72;63.76
48964;BME280;34776;48.180;16.420;2022-10-04T03:41:51;100301.31;;;12.71;63.94
48964;BME280;34776;48.180;16.420;2022-10-04T03:44:17;100303.19;;;12.69;63.99
48964;BME280;34776;48.180;16.420;2022-10-04T03:46:44;100303.19;;;12.69;64.29
48964;BME280;34776;48.180;16.420;2022-10-04T03:49:14;100307.50;;;12.71;64.14
48964;BME280;34776;48.180;16.420;2022-10-04T03:51:45;100302.00;;;12.74;64.14
48964;BME280;34776;48.180;16.420;2022-10-04T03:54:16;100300.44;;;12.70;64.10
48964;BME280;34776;48.180;16.420;2022-10-04T03:56:43;100303.03;;;12.72;64.37
48964;BME280;34776;48.180;16.420;2022-10-04T03:59:13;100304.06;;;12.69;64.39
48964;BME280;34776;48.180;16.420;2022-10-04T04:04:22;100296.13;;;12.68;64.42
48964;BME280;34776;48.180;16.420;2022-10-04T04:12:10;100294.16;;;12.71;64.73
48964;BME280;34776;48.180;16.420;2022-10-04T04:14:39;100304.91;;;12.70;64.47
48964;BME280;34776;48.180;16.420;2022-10-04T04:19:53;100296.28;;;12.65;64.74
48964;BME280;34776;48.180;16.420;2022-10-04T04:22:19;100304.13;;;12.68;64.69
48964;BME280;34776;48.180;16.420;2022-10-04T04:24:46;100307.69;;;12.68;64.54
48964;BME280;34776;48.180;16.420;2022-10-04T04:27:12;100314.72;;;12.69;64.62
48964;BME280;34776;48.180;16.420;2022-10-04T04:29:49;100319.03;;;12.72;64.61
48964;BME280;34776;48.180;16.420;2022-10-04T04:32:20;100314.53;;;12.72;64.62
48964;BME280;34776;48.180;16.420;2022-10-04T04:35:00;100315.19;;;12.77;64.69
48964;BME280;34776;48.180;16.420;2022-10-04T04:37:34;100309.53;;;12.84;64.65
48964;BME280;34776;48.180;16.420;2022-10-04T04:40:21;100310.63;;;12.79;64.88
48964;BME280;34776;48.180;16.420;2022-10-04T04:42:47;100312.50;;;12.77;64.52
48964;BME280;34776;48.180;16.420;2022-10-04T04:45:16;100317.06;;;12.75;64.76
48964;BME280;34776;48.180;16.420;2022-10-04T04:47:51;100311.47;;;12.80;64.62
48964;BME280;34776;48.180;16.420;2022-10-04T04:50:19;100319.72;;;12.75;64.55
48964;BME280;34776;48.180;16.420;2022-10-04T04:52:47;100318.00;;;12.74;64.89
48964;BME280;34776;48.180;16.420;2022-10-04T04:55:23;100321.44;;;12.76;64.66
48964;BME280;34776;48.180;16.420;2022-10-04T04:57:52;100327.66;;;12.77;64.53
48964;BME280;34776;48.180;16.420;2022-10-04T05:00:23;100338.31;;;12.77;64.95
48964;BME280;34776;48.180;16.420;2022-10-04T05:02:54;100334.69;;;12.78;64.85
48964;BME280;34776;48.180;16.420;2022-10-04T05:08:12;100342.47;;;12.83;64.80
48964;BME280;34776;48.180;16.420;2022-10-04T05:10:44;100345.75;;;12.88;64.73
48964;BME280;34776;48.180;16.420;2022-10-04T05:13:11;100344.19;;;12.84;64.74
48964;BME280;34776;48.180;16.420;2022-10-04T05:15:39;100342.47;;;12.83;64.68
48964;BME280;34776;48.180;16.420;2022-10-04T05:18:25;100356.56;;;12.85;64.60
48964;BME280;34776;48.180;16.420;2022-10-04T05:20:53;100347.31;;;12.92;64.65
48964;BME280;34776;48.180;16.420;2022-10-04T05:23:19;100350.78;;;12.94;64.23
48964;BME280;34776;48.180;16.420;2022-10-04T05:25:45;100352.47;;;12.95;64.46
48964;BME280;34776;48.180;16.420;2022-10-04T05:28:12;100353.44;;;12.94;64.36
48964;BME280;34776;48.180;16.420;2022-10-04T05:33:53;100356.44;;;12.88;64.63
48964;BME280;34776;48.180;16.420;2022-10-04T05:36:46;100363.41;;;12.90;64.94
48964;BME280;34776;48.180;16.420;2022-10-04T05:44:22;100375.84;;;13.07;64.24
48964;BME280;34776;48.180;16.420;2022-10-04T05:46:50;100378.38;;;13.10;64.24
48964;BME280;34776;48.180;16.420;2022-10-04T05:49:19;100383.16;;;13.04;64.18
48964;BME280;34776;48.180;16.420;2022-10-04T05:52:01;100382.47;;;13.00;64.43
48964;BME280;34776;48.180;16.420;2022-10-04T05:54:29;100378.44;;;13.09;64.26
48964;BME280;34776;48.180;16.420;2022-10-04T06:16:17;100393.56;;;13.26;63.72
48964;BME280;34776;48.180;16.420;2022-10-04T06:21:39;100402.34;;;13.28;64.10
48964;BME280;34776;48.180;16.420;2022-10-04T06:24:15;100398.69;;;13.30;64.00
48964;BME280;34776;48.180;16.420;2022-10-04T06:26:47;100405.66;;;13.33;63.42
48964;BME280;34776;48.180;16.420;2022-10-04T06:29:19;100403.78;;;13.35;63.90
48964;BME280;34776;48.180;16.420;2022-10-04T06:32:19;100394.66;;;13.39;63.65
48964;BME280;34776;48.180;16.420;2022-10-04T06:37:37;100401.22;;;13.49;63.39
48964;BME280;34776;48.180;16.420;2022-10-04T06:45:44;100406.25;;;13.55;63.10
48964;BME280;34776;48.180;16.420;2022-10-04T06:50:48;100430.44;;;13.52;62.91
48964;BME280;34776;48.180;16.420;2022-10-04T06:53:32;100425.53;;;13.60;63.02
48964;BME280;34776;48.180;16.420;2022-10-04T06:56:18;100431.56;;;13.64;62.95
48964;BME280;34776;48.180;16.420;2022-10-04T07:01:26;100435.56;;;13.73;62.88
48964;BME280;34776;48.180;16.420;2022-10-04T07:04:09;100435.91;;;13.83;62.92
48964;BME280;34776;48.180;16.420;2022-10-04T07:06:42;100444.38;;;13.91;62.65
48964;BME280;34776;48.180;16.420;2022-10-04T07:09:24;100449.81;;;13.89;62.18
48964;BME280;34776;48.180;16.420;2022-10-04T07:12:00;100450.75;;;13.88;62.61
48964;BME280;34776;48.180;16.420;2022-10-04T07:14:37;100450.25;;;13.97;62.41
48964;BME280;34776;48.180;16.420;2022-10-04T07:17:12;100459.13;;;14.14;62.40
48964;BME280;34776;48.180;16.420;2022-10-04T07:19:41;100455.00;;;14.24;61.63
48964;BME280;34776;48.180;16.420;2022-10-04T07:22:19;100448.69;;;14.25;61.80
48964;BME280;34776;48.180;16.420;2022-10-04T07:30:16;100443.66;;;14.51;61.18
48964;BME280;34776;48.180;16.420;2022-10-04T07:32:45;100439.09;;;14.69;60.84
48964;BME280;34776;48.180;16.420;2022-10-04T07:38:08;100454.78;;;15.05;59.68
48964;BME280;34776;48.180;16.420;2022-10-04T07:40:37;100452.91;;;15.21;58.55
48964;BME280;34776;48.180;16.420;2022-10-04T07:43:21;100450.84;;;15.41;57.99
48964;BME280;34776;48.180;16.420;2022-10-04T07:45:49;100448.00;;;15.44;58.44
48964;BME280;34776;48.180;16.420;2022-10-04T07:48:20;100444.16;;;15.34;58.17
48964;BME280;34776;48.180;16.420;2022-10-04T07:51:06;100455.06;;;15.45;57.74
48964;BME280;34776;48.180;16.420;2022-10-04T07:53:45;100434.44;;;15.76;57.95
48964;BME280;34776;48.180;16.420;2022-10-04T07:56:16;100446.69;;;15.94;57.45
48964;BME280;34776;48.180;16.420;2022-10-04T08:04:44;100445.91;;;15.92;55.87
48964;BME280;34776;48.180;16.420;2022-10-04T08:07:18;100447.75;;;16.19;56.74
48964;BME280;34776;48.180;16.420;2022-10-04T08:10:05;100447.66;;;16.62;55.82
48964;BME280;34776;48.180;16.420;2022-10-04T08:12:49;100453.47;;;16.96;53.61
48964;BME280;34776;48.180;16.420;2022-10-04T08:15:36;100449.84;;;16.97;52.68
48964;BME280;34776;48.180;16.420;2022-10-04T08:18:27;100452.28;;;17.00;53.82
48964;BME280;34776;48.180;16.420;2022-10-04T08:20:59;100451.38;;;17.14;54.29
48964;BME280;34776;48.180;16.420;2022-10-04T08:23:44;100458.94;;;17.07;52.37
48964;BME280;34776;48.180;16.420;2022-10-04T08:26:38;100454.47;;;17.20;53.27
48964;BME280;34776;48.180;16.420;2022-10-04T08:32:25;100456.22;;;17.47;51.57
48964;BME280;34776;48.180;16.420;2022-10-04T08:35:22;100452.22;;;17.14;52.54
48964;BME280;34776;48.180;16.420;2022-10-04T08:43:47;100459.50;;;17.12;52.30
48964;BME280;34776;48.180;16.420;2022-10-04T09:10:44;100452.66;;;17.21;52.53
48964;BME280;34776;48.180;16.420;2022-10-04T09:13:26;100456.31;;;17.33;51.65
48964;BME280;34776;48.180;16.420;2022-10-04T09:19:18;100474.38;;;17.56;50.71
48964;BME280;34776;48.180;16.420;2022-10-04T09:27:41;100478.91;;;17.69;50.80
48964;BME280;34776;48.180;16.420;2022-10-04T09:30:21;100473.22;;;17.86;50.46
48964;BME280;34776;48.180;16.420;2022-10-04T09:33:24;100479.34;;;17.88;50.36
48964;BME280;34776;48.180;16.420;2022-10-04T09:35:57;100486.31;;;18.03;50.37
48964;BME280;34776;48.180;16.420;2022-10-04T09:41:36;100488.75;;;18.19;50.05
48964;BME280;34776;48.180;16.420;2022-10-04T09:47:29;100484.59;;;18.02;49.86
48964;BME280;34776;48.180;16.420;2022-10-04T09:55:41;100487.22;;;18.28;49.71
48964;BME280;34776;48.180;16.420;2022-10-04T09:59:15;100492.22;;;18.45;49.41
48964;BME280;34776;48.180;16.420;2022-10-04T10:01:41;100491.59;;;18.42;48.94
48964;BME280;34776;48.180;16.420;2022-10-04T10:10:12;100495.66;;;18.11;48.87
48964;BME280;34776;48.180;16.420;2022-10-04T10:13:39;100498.81;;;17.92;50.06
48964;BME280;34776;48.180;16.420;2022-10-04T10:16:41;100502.00;;;18.10;49.50
48964;BME280;34776;48.180;16.420;2022-10-04T10:19:23;100502.50;;;18.28;49.47
48964;BME280;34776;48.180;16.420;2022-10-04T10:25:10;100506.13;;;18.39;48.56
48964;BME280;34776;48.180;16.420;2022-10-04T10:36:33;100507.50;;;19.06;47.13
48964;BME280;34776;48.180;16.420;2022-10-04T10:42:04;100507.13;;;19.46;46.82
48964;BME280;34776;48.180;16.420;2022-10-04T10:47:31;100496.97;;;19.38;47.12
48964;BME280;34776;48.180;16.420;2022-10-04T10:53:10;100499.91;;;19.93;44.79
48964;BME280;34776;48.180;16.420;2022-10-04T10:56:06;100495.91;;;19.63;45.67
48964;BME280;34776;48.180;16.420;2022-10-04T11:07:53;100492.56;;;21.89;40.56
48964;BME280;34776;48.180;16.420;2022-10-04T11:26:48;100490.69;;;19.26;45.99
48964;BME280;34776;48.180;16.420;2022-10-04T11:32:43;100486.19;;;19.50;45.94
48964;BME280;34776;48.180;16.420;2022-10-04T11:38:09;100487.31;;;19.47;46.04
48964;BME280;34776;48.180;16.420;2022-10-04T11:46:47;100480.63;;;19.17;46.85
48964;BME280;34776;48.180;16.420;2022-10-04T12:01:19;100474.09;;;20.45;43.59
48964;BME280;34776;48.180;16.420;2022-10-04T12:09:34;100472.66;;;19.96;44.64
48964;BME280;34776;48.180;16.420;2022-10-04T12:12:26;100465.78;;;19.92;45.11
48964;BME280;34776;48.180;16.420;2022-10-04T12:25:59;100466.28;;;19.17;45.18
48964;BME280;34776;48.180;16.420;2022-10-04T12:34:03;100463.47;;;19.30;44.83
48964;BME280;34776;48.180;16.420;2022-10-04T12:48:09;100464.75;;;19.48;44.53
48964;BME280;34776;48.180;16.420;2022-10-04T12:51:00;100465.41;;;19.16;44.42
48964;BME280;34776;48.180;16.420;2022-10-04T12:56:06;100469.75;;;18.95;45.64
48964;BME280;34776;48.180;16.420;2022-10-04T13:01:20;100469.22;;;18.65;45.99
48964;BME280;34776;48.180;16.420;2022-10-04T13:08:58;100483.81;;;18.74;46.51
48964;BME280;34776;48.180;16.420;2022-10-04T13:14:39;100469.78;;;19.53;45.01
48964;BME280;34776;48.180;16.420;2022-10-04T13:31:24;100482.94;;;18.86;45.52
48964;BME280;34776;48.180;16.420;2022-10-04T13:39:20;100490.81;;;18.53;46.87
48964;BME280;34776;48.180;16.420;2022-10-04T13:42:26;100485.47;;;18.40;47.24
48964;BME280;34776;48.180;16.420;2022-10-04T13:45:28;100485.69;;;18.37;46.25
48964;BME280;34776;48.180;16.420;2022-10-04T13:48:11;100492.81;;;18.38;46.38
48964;BME280;34776;48.180;16.420;2022-10-04T14:05:12;100485.03;;;18.70;45.77
48964;BME280;34776;48.180;16.420;2022-10-04T14:11:00;100475.78;;;18.98;45.25
48964;BME280;34776;48.180;16.420;2022-10-04T14:22:04;100481.88;;;18.76;45.15
48964;BME280;34776;48.180;16.420;2022-10-04T14:24:56;100484.28;;;18.68;44.24
48964;BME280;34776;48.180;16.420;2022-10-04T14:27:55;100483.44;;;18.92;44.96
48964;BME280;34776;48.180;16.420;2022-10-04T14:44:44;100483.78;;;18.26;46.21
48964;BME280;34776;48.180;16.420;2022-10-04T14:50:56;100474.78;;;18.01;47.20
48964;BME280;34776;48.180;16.420;2022-10-04T14:53:22;100468.81;;;17.85;47.41
48964;BME280;34776;48.180;16.420;2022-10-04T14:58:25;100474.78;;;17.76;47.34
48964;BME280;34776;48.180;16.420;2022-10-04T15:01:26;100472.34;;;17.73;47.30
48964;BME280;34776;48.180;16.420;2022-10-04T15:04:25;100469.00;;;17.69;47.26
48964;BME280;34776;48.180;16.420;2022-10-04T15:06:57;100470.50;;;17.60;47.58
48964;BME280;34776;48.180;16.420;2022-10-04T15:15:20;100460.38;;;17.25;48.24
48964;BME280;34776;48.180;16.420;2022-10-04T15:20:57;100470.34;;;17.11;48.71
48964;BME280;34776;48.180;16.420;2022-10-04T15:23:42;100468.63;;;16.97;48.88
48964;BME280;34776;48.180;16.420;2022-10-04T15:31:31;100476.34;;;16.89;48.58
48964;BME280;34776;48.180;16.420;2022-10-04T15:34:23;100479.00;;;16.89;48.63
48964;BME280;34776;48.180;16.420;2022-10-04T15:51:41;100490.84;;;16.44;48.88
48964;BME280;34776;48.180;16.420;2022-10-04T16:00:21;100497.66;;;16.36;49.13
48964;BME280;34776;48.180;16.420;2022-10-04T16:03:19;100492.56;;;16.31;49.17
48964;BME280;34776;48.180;16.420;2022-10-04T16:06:04;100503.50;;;16.28;49.65
48964;BME280;34776;48.180;16.420;2022-10-04T16:20:21;100511.84;;;15.95;50.12
48964;BME280;34776;48.180;16.420;2022-10-04T16:22:31;100519.44;;;15.88;50.81
48964;BME280;34776;48.180;16.420;2022-10-04T16:25:34;100515.38;;;15.81;50.86
48964;BME280;34776;48.180;16.420;2022-10-04T16:31:14;100525.19;;;15.66;51.17
48964;BME280;34776;48.180;16.420;2022-10-04T16:36:50;100526.34;;;15.48;51.43
48964;BME280;34776;48.180;16.420;2022-10-04T16:39:54;100530.53;;;15.37;52.44
48964;BME280;34776;48.180;16.420;2022-10-04T16:47:39;100538.00;;;15.16;52.90
48964;BME280;34776;48.180;16.420;2022-10-04T16:56:23;100539.44;;;14.92;53.86
48964;BME280;34776;48.180;16.420;2022-10-04T16:59:10;100551.34;;;14.86;53.91
48964;BME280;34776;48.180;16.420;2022-10-04T17:02:05;100556.38;;;14.76;54.48
48964;BME280;34776;48.180;16.420;2022-10-04T17:04:40;100557.59;;;14.71;54.29
48964;BME280;34776;48.180;16.420;2022-10-04T17:07:29;100556.38;;;14.60;54.46
48964;BME280;34776;48.180;16.420;2022-10-04T17:10:16;100564.13;;;14.49;55.44
48964;BME280;34776;48.180;16.420;2022-10-04T17:12:52;100574.28;;;14.43;55.51
48964;BME280;34776;48.180;16.420;2022-10-04T17:24:12;100576.28;;;14.06;57.43
48964;BME280;34776;48.180;16.420;2022-10-04T17:26:55;100569.63;;;13.97;57.76
48964;BME280;34776;48.180;16.420;2022-10-04T17:31:58;100575.69;;;13.83;57.91
48964;BME280;34776;48.180;16.420;2022-10-04T17:39:58;100576.56;;;13.66;58.82
48964;BME280;34776;48.180;16.420;2022-10-04T17:53:29;100587.16;;;13.33;60.29
48964;BME280;34776;48.180;16.420;2022-10-04T17:56:26;100593.66;;;13.27;60.93
48964;BME280;34776;48.180;16.420;2022-10-04T17:58:55;100592.94;;;13.24;61.26
48964;BME280;34776;48.180;16.420;2022-10-04T18:04:23;100591.66;;;13.13;62.26
48964;BME280;34776;48.180;16.420;2022-10-04T18:09:34;100595.66;;;13.05;61.92
48964;BME280;34776;48.180;16.420;2022-10-04T18:12:11;100585.22;;;13.00;62.21
48964;BME280;34776;48.180;16.420;2022-10-04T18:15:09;100598.84;;;12.94;63.04
48964;BME280;34776;48.180;16.420;2022-10-04T18:17:44;100591.84;;;12.91;63.04
48964;BME280;34776;48.180;16.420;2022-10-04T18:20:26;100596.47;;;12.88;63.27
48964;BME280;34776;48.180;16.420;2022-10-04T18:23:00;100603.03;;;12.80;63.17
48964;BME280;34776;48.180;16.420;2022-10-04T18:25:29;100606.88;;;12.75;63.79
48964;BME280;34776;48.180;16.420;2022-10-04T18:33:20;100603.25;;;12.57;64.57
48964;BME280;34776;48.180;16.420;2022-10-04T18:38:30;100605.44;;;12.49;65.42
48964;BME280;34776;48.180;16.420;2022-10-04T18:41:10;100597.72;;;12.43;65.60
48964;BME280;34776;48.180;16.420;2022-10-04T18:43:52;100603.25;;;12.38;66.36
48964;BME280;34776;48.180;16.420;2022-10-04T18:46:38;100600.66;;;12.36;66.63
48964;BME280;34776;48.180;16.420;2022-10-04T18:49:16;100610.69;;;12.31;66.40
48964;BME280;34776;48.180;16.420;2022-10-04T18:54:37;100617.34;;;12.21;67.00
48964;BME280;34776;48.180;16.420;2022-10-04T18:57:32;100606.97;;;12.15;67.57
48964;BME280;34776;48.180;16.420;2022-10-04T19:00:20;100614.16;;;12.13;67.11
48964;BME280;34776;48.180;16.420;2022-10-04T19:03:29;100614.22;;;12.11;67.42
48964;BME280;34776;48.180;16.420;2022-10-04T19:11:02;100620.19;;;11.97;68.48
48964;BME280;34776;48.180;16.420;2022-10-04T19:13:34;100620.31;;;11.94;68.54
48964;BME280;34776;48.180;16.420;2022-10-04T19:16:13;100624.94;;;11.91;68.97
48964;BME280;34776;48.180;16.420;2022-10-04T19:18:50;100631.22;;;11.88;69.12
48964;BME280;34776;48.180;16.420;2022-10-04T19:27:18;100637.09;;;11.76;70.67
48964;BME280;34776;48.180;16.420;2022-10-04T19:37:58;100639.97;;;11.49;71.13
48964;BME280;34776;48.180;16.420;2022-10-04T19:40:42;100638.22;;;11.48;71.54
48964;BME280;34776;48.180;16.420;2022-10-04T19:43:34;100651.69;;;11.45;71.66
48964;BME280;34776;48.180;16.420;2022-10-04T19:48:55;100651.94;;;11.39;72.02
48964;BME280;34776;48.180;16.420;2022-10-04T19:51:30;100652.84;;;11.38;72.16
48964;BME280;34776;48.180;16.420;2022-10-04T19:54:12;100646.81;;;11.34;72.28
48964;BME280;34776;48.180;16.420;2022-10-04T19:56:47;100656.59;;;11.34;72.24
48964;BME280;34776;48.180;16.420;2022-10-04T19:59:16;100667.22;;;11.34;72.29
48964;BME280;34776;48.180;16.420;2022-10-04T20:01:44;100668.28;;;11.30;72.75
48964;BME280;34776;48.180;16.420;2022-10-04T20:04:15;100663.06;;;11.27;73.16
48964;BME280;34776;48.180;16.420;2022-10-04T20:07:01;100662.16;;;11.28;73.39
48964;BME280;34776;48.180;16.420;2022-10-04T20:12:03;100659.56;;;11.26;73.55
48964;BME280;34776;48.180;16.420;2022-10-04T20:21:51;100684.03;;;11.12;74.47
48964;BME280;34776;48.180;16.420;2022-10-04T20:27:05;100682.66;;;11.02;75.03
48964;BME280;34776;48.180;16.420;2022-10-04T20:32:03;100683.16;;;10.90;74.73
48964;BME280;34776;48.180;16.420;2022-10-04T20:37:07;100685.03;;;10.88;74.85
48964;BME280;34776;48.180;16.420;2022-10-04T20:42:31;100694.59;;;10.92;75.54
48964;BME280;34776;48.180;16.420;2022-10-04T20:47:42;100686.06;;;10.84;75.02
48964;BME280;34776;48.180;16.420;2022-10-04T20:50:40;100689.84;;;10.76;75.33
48964;BME280;34776;48.180;16.420;2022-10-04T20:55:47;100700.41;;;10.80;75.53
48964;BME280;34776;48.180;16.420;2022-10-04T20:58:33;100694.25;;;10.77;75.40
48964;BME280;34776;48.180;16.420;2022-10-04T21:01:05;100696.94;;;10.77;75.55
48964;BME280;34776;48.180;16.420;2022-10-04T21:07:15;100703.50;;;10.67;75.71
48964;BME280;34776;48.180;16.420;2022-10-04T21:09:41;100695.53;;;10.67;76.11
48964;BME280;34776;48.180;16.420;2022-10-04T21:12:26;100702.78;;;10.62;76.76
48964;BME280;34776;48.180;16.420;2022-10-04T21:15:06;100698.50;;;10.58;76.88
48964;BME280;34776;48.180;16.420;2022-10-04T21:17:38;100705.69;;;10.56;76.91
48964;BME280;34776;48.180;16.420;2022-10-04T21:20:05;100708.50;;;10.51;77.23
48964;BME280;34776;48.180;16.420;2022-10-04T21:22:37;100711.34;;;10.47;77.44
48964;BME280;34776;48.180;16.420;2022-10-04T21:25:25;100724.63;;;10.47;77.16
48964;BME280;34776;48.180;16.420;2022-10-04T21:27:51;100724.53;;;10.50;77.52
48964;BME280;34776;48.180;16.420;2022-10-04T21:30:17;100712.16;;;10.49;77.56
48964;BME280;34776;48.180;16.420;2022-10-04T21:32:44;100718.41;;;10.48;77.20
48964;BME280;34776;48.180;16.420;2022-10-04T21:35:11;100716.84;;;10.42;77.51
48964;BME280;34776;48.180;16.420;2022-10-04T21:37:37;100710.94;;;10.34;78.06
48964;BME280;34776;48.180;16.420;2022-10-04T21:40:04;100714.50;;;10.33;78.11
48964;BME280;34776;48.180;16.420;2022-10-04T21:42:30;100716.44;;;10.28;78.53
48964;BME280;34776;48.180;16.420;2022-10-04T21:44:55;100722.72;;;10.25;78.65
48964;BME280;34776;48.180;16.420;2022-10-04T21:47:20;100717.50;;;10.22;78.55
48964;BME280;34776;48.180;16.420;2022-10-04T21:49:49;100720.09;;;10.24;78.50
48964;BME280;34776;48.180;16.420;2022-10-04T21:52:19;100704.94;;;10.27;78.58
48964;BME280;34776;48.180;16.420;2022-10-04T21:54:44;100710.25;;;10.27;78.36